createdAt,value
2018-10-06T00:01:15.918Z,14.80
2018-10-06T00:03:44.157Z,10.88
2018-10-06T00:06:12.175Z,18.00
2018-10-06T00:08:40.251Z,13.57
2018-10-06T00:11:08.323Z,11.33
2018-10-06T00:13:36.354Z,21.40
2018-10-06T00:16:04.696Z,9.17
2018-10-06T00:18:32.731Z,15.50
2018-10-06T00:21:00.826Z,18.83
2018-10-06T00:23:28.892Z,12.97
2018-10-06T00:25:56.910Z,13.30
2018-10-06T00:28:24.969Z,15.13
2018-10-06T00:30:53.112Z,13.23
2018-10-06T00:33:21.175Z,15.17
2018-10-06T00:35:49.215Z,11.70
2018-10-06T00:38:17.247Z,19.53
2018-10-06T00:40:45.269Z,12.57
2018-10-06T00:43:13.458Z,11.90
2018-10-06T00:45:41.875Z,12.03
2018-10-06T00:48:09.908Z,15.27
2018-10-06T00:50:37.930Z,13.80
2018-10-06T00:53:06.558Z,14.67
2018-10-06T00:55:34.574Z,10.00
2018-10-06T00:58:02.600Z,15.60
2018-10-06T01:00:30.650Z,13.93
2018-10-06T01:02:58.672Z,18.73
2018-10-06T01:05:26.695Z,13.10
2018-10-06T01:07:55.202Z,15.03
2018-10-06T01:10:23.230Z,13.10
2018-10-06T01:12:51.263Z,16.60
2018-10-06T01:15:19.344Z,15.47
2018-10-06T01:17:47.388Z,16.77
2018-10-06T01:20:15.591Z,14.70
2018-10-06T01:22:44.125Z,14.17
2018-10-06T01:25:12.194Z,14.23
2018-10-06T01:27:40.271Z,14.07
2018-10-06T01:30:08.383Z,20.07
2018-10-06T01:32:36.421Z,14.13
2018-10-06T01:35:04.506Z,12.40
2018-10-06T01:37:32.554Z,11.23
2018-10-06T01:40:00.606Z,12.67
2018-10-06T01:42:28.655Z,15.47
2018-10-06T01:44:56.702Z,16.73
2018-10-06T01:47:24.933Z,10.93
2018-10-06T01:49:52.965Z,12.27
2018-10-06T01:52:21.287Z,11.67
2018-10-06T01:54:49.323Z,16.40
2018-10-06T01:57:17.359Z,15.53
2018-10-06T01:59:45.411Z,11.80
2018-10-06T02:02:13.483Z,13.87
2018-10-06T02:04:41.616Z,16.63
2018-10-06T02:07:09.705Z,21.47
2018-10-06T02:09:37.788Z,20.53
2018-10-06T02:12:06.115Z,14.60
2018-10-06T02:14:34.342Z,13.07
2018-10-06T02:17:02.478Z,16.13
2018-10-06T02:19:30.542Z,18.10
2018-10-06T02:21:58.734Z,14.30
2018-10-06T02:24:26.775Z,14.97
2018-10-06T02:26:54.800Z,21.43
2018-10-06T02:29:23.183Z,20.53
2018-10-06T02:31:51.235Z,14.30
2018-10-06T02:34:19.448Z,14.60
2018-10-06T02:36:47.526Z,18.60
2018-10-06T02:39:15.681Z,15.83
2018-10-06T02:41:43.746Z,12.43
2018-10-06T02:44:11.810Z,13.40
2018-10-06T02:46:39.841Z,16.50
2018-10-06T02:49:08.179Z,12.27
2018-10-06T02:51:36.274Z,14.27
2018-10-06T02:54:04.295Z,18.63
2018-10-06T02:56:32.353Z,15.50
2018-10-06T02:59:01.675Z,14.07
2018-10-06T03:01:29.759Z,18.47
2018-10-06T03:03:57.940Z,13.07
2018-10-06T03:06:26.183Z,17.27
2018-10-06T03:08:54.447Z,13.17
2018-10-06T03:11:22.558Z,19.07
2018-10-06T03:13:50.947Z,20.57
2018-10-06T03:16:18.975Z,18.20
2018-10-06T03:18:47.018Z,18.30
2018-10-06T03:21:15.348Z,15.83
2018-10-06T03:23:43.366Z,16.93
2018-10-06T03:26:11.392Z,20.50
2018-10-06T03:28:39.411Z,18.50
2018-10-06T03:31:07.459Z,13.47
2018-10-06T03:33:35.479Z,16.03
2018-10-06T03:36:05.029Z,15.13
2018-10-06T03:38:33.062Z,17.83
2018-10-06T03:41:01.136Z,22.73
2018-10-06T03:43:29.189Z,15.47
2018-10-06T03:45:57.201Z,13.17
2018-10-06T03:48:25.280Z,13.70
2018-10-06T03:50:53.684Z,17.50
2018-10-06T03:53:21.704Z,18.50
2018-10-06T03:55:49.999Z,13.37
2018-10-06T03:58:18.446Z,18.50
2018-10-06T04:00:46.449Z,22.90
2018-10-06T04:03:14.592Z,23.13
2018-10-06T04:05:42.927Z,18.73
2018-10-06T04:08:10.985Z,15.90
2018-10-06T04:10:39.088Z,17.73
2018-10-06T04:13:07.707Z,19.43
2018-10-06T04:15:35.727Z,26.10
2018-10-06T04:18:03.758Z,21.83
2018-10-06T04:20:31.796Z,14.77
2018-10-06T04:22:59.796Z,19.00
2018-10-06T04:25:27.843Z,18.27
2018-10-06T04:27:56.326Z,14.23
2018-10-06T04:30:24.379Z,16.67
2018-10-06T04:32:52.463Z,17.50
2018-10-06T04:35:20.531Z,18.00
2018-10-06T04:37:48.531Z,15.73
2018-10-06T04:40:16.683Z,19.67
2018-10-06T04:42:44.786Z,16.20
2018-10-06T04:45:12.805Z,16.53
2018-10-06T04:47:40.865Z,18.20
2018-10-06T04:50:08.891Z,16.67
2018-10-06T04:52:37.217Z,20.33
2018-10-06T04:55:05.398Z,13.87
2018-10-06T04:57:33.473Z,13.07
2018-10-06T05:00:01.562Z,15.87
2018-10-06T05:02:29.557Z,16.80
2018-10-06T05:04:57.803Z,15.97
2018-10-06T05:07:25.846Z,18.27
2018-10-06T05:09:53.914Z,16.67
2018-10-06T05:12:21.926Z,16.27
2018-10-06T05:14:49.965Z,19.40
2018-10-06T05:17:17.989Z,14.27
2018-10-06T05:19:46.370Z,16.93
2018-10-06T05:22:14.394Z,19.83
2018-10-06T05:24:42.578Z,22.70
2018-10-06T05:27:10.845Z,17.10
2018-10-06T05:29:38.994Z,16.20
2018-10-06T05:32:07.047Z,14.33
2018-10-06T05:34:35.168Z,11.37
2018-10-06T05:37:03.367Z,23.43
2018-10-06T05:39:31.375Z,13.90
2018-10-06T05:41:59.602Z,17.50
2018-10-06T05:44:27.645Z,14.10
2018-10-06T05:46:55.649Z,12.67
2018-10-06T05:49:23.678Z,9.90
2018-10-06T05:51:52.035Z,10.50
2018-10-06T05:54:20.249Z,14.28
2018-10-06T05:56:48.538Z,12.05
2018-10-06T05:59:17.427Z,10.72
2018-10-06T06:01:45.598Z,15.72
2018-10-06T06:04:14.059Z,14.38
2018-10-06T06:06:43.059Z,9.58
2018-10-06T06:09:11.143Z,9.68
2018-10-06T06:11:39.212Z,8.75
2018-10-06T06:14:07.593Z,9.85
2018-10-06T06:16:36.578Z,12.03
2018-10-06T06:19:04.858Z,10.35
2018-10-06T06:21:32.856Z,7.03
2018-10-06T06:24:01.801Z,10.63
2018-10-06T06:26:29.888Z,8.88
2018-10-06T06:28:57.953Z,10.63
2018-10-06T06:31:26.080Z,13.25
2018-10-06T06:33:54.306Z,12.95
2018-10-06T06:36:22.405Z,16.17
2018-10-06T06:38:50.438Z,6.53
2018-10-06T06:41:18.460Z,8.43
2018-10-06T06:43:46.501Z,7.53
2018-10-06T06:46:14.535Z,8.18
2018-10-06T06:48:42.578Z,14.78
2018-10-06T06:51:10.682Z,12.10
2018-10-06T06:53:38.658Z,9.28
2018-10-06T06:56:07.170Z,9.98
2018-10-06T06:58:35.323Z,11.10
2018-10-06T07:01:03.432Z,11.50
2018-10-06T07:03:31.606Z,9.85
2018-10-06T07:05:59.638Z,11.65
2018-10-06T07:08:28.734Z,11.22
2018-10-06T07:10:56.802Z,13.90
2018-10-06T07:13:25.323Z,7.84
2018-10-06T07:15:53.346Z,8.78
2018-10-06T07:18:21.876Z,10.45
2018-10-06T07:20:50.360Z,9.45
2018-10-06T07:23:18.388Z,10.48
2018-10-06T07:25:46.678Z,11.83
2018-10-06T07:28:14.703Z,9.23
2018-10-06T07:30:42.740Z,7.80
2018-10-06T07:33:10.889Z,8.30
2018-10-06T07:35:39.206Z,10.10
2018-10-06T07:38:07.333Z,9.37
2018-10-06T07:40:35.359Z,9.73
2018-10-06T07:43:03.403Z,8.13
2018-10-06T07:45:31.425Z,9.43
2018-10-06T07:47:59.718Z,11.67
2018-10-06T07:50:27.754Z,10.23
2018-10-06T07:52:55.978Z,8.40
2018-10-06T07:55:24.035Z,10.00
2018-10-06T07:57:52.249Z,8.40
2018-10-06T08:00:20.366Z,10.23
2018-10-06T08:02:48.762Z,8.20
2018-10-06T08:05:16.768Z,13.00
2018-10-06T08:07:44.786Z,9.95
2018-10-06T08:10:13.171Z,11.93
2018-10-06T08:12:41.202Z,8.48
2018-10-06T08:15:09.374Z,8.33
2018-10-06T08:17:37.611Z,9.60
2018-10-06T08:20:05.666Z,15.35
2018-10-06T08:22:33.751Z,11.35
2018-10-06T08:25:01.937Z,6.62
2018-10-06T08:27:29.970Z,8.10
2018-10-06T08:29:58.251Z,8.25
2018-10-06T08:32:26.422Z,13.40
2018-10-06T08:34:54.480Z,10.18
2018-10-06T08:37:22.539Z,8.93
2018-10-06T08:39:50.601Z,10.08
2018-10-06T08:42:18.750Z,7.83
2018-10-06T08:44:46.749Z,8.10
2018-10-06T08:47:15.289Z,11.55
2018-10-06T08:49:43.503Z,14.68
2018-10-06T08:52:11.594Z,9.23
2018-10-06T08:54:39.936Z,11.63
2018-10-06T08:57:08.058Z,10.55
2018-10-06T08:59:36.306Z,12.45
2018-10-06T09:02:04.402Z,11.35
2018-10-06T09:04:32.419Z,7.97
2018-10-06T09:07:00.454Z,7.28
2018-10-06T09:09:28.731Z,9.63
2018-10-06T09:11:57.223Z,12.50
2018-10-06T09:14:25.238Z,11.00
2018-10-06T09:16:53.358Z,8.75
2018-10-06T09:19:21.371Z,7.03
2018-10-06T09:21:49.351Z,9.00
2018-10-06T09:24:17.485Z,6.92
2018-10-06T09:26:45.506Z,9.30
2018-10-06T09:29:13.574Z,7.20
2018-10-06T09:31:41.570Z,6.47
2018-10-06T09:34:09.609Z,11.78
2018-10-06T09:36:37.643Z,7.75
2018-10-06T09:39:07.031Z,9.23
2018-10-06T09:41:35.082Z,8.08
2018-10-06T09:44:03.214Z,9.30
2018-10-06T09:46:31.306Z,10.58
2018-10-06T09:48:59.389Z,11.12
2018-10-06T09:51:27.537Z,5.70
2018-10-06T09:53:55.864Z,14.45
2018-10-06T09:56:23.892Z,8.43
2018-10-06T09:58:52.146Z,7.72
2018-10-06T10:01:26.216Z,4.95
2018-10-06T10:03:59.984Z,6.78
2018-10-06T10:06:28.133Z,9.20
2018-10-06T10:08:56.165Z,5.53
2018-10-06T10:11:24.258Z,8.93
2018-10-06T10:13:52.493Z,5.35
2018-10-06T10:16:20.547Z,6.10
2018-10-06T10:18:48.630Z,4.80
2018-10-06T10:21:16.938Z,8.80
2018-10-06T10:23:45.030Z,7.70
2018-10-06T10:26:13.062Z,13.58
2018-10-06T10:28:41.334Z,9.53
2018-10-06T10:31:09.462Z,7.97
2018-10-06T10:33:37.520Z,7.70
2018-10-06T10:36:05.795Z,9.63
2018-10-06T10:38:34.007Z,15.45
2018-10-06T10:41:02.051Z,5.90
2018-10-06T10:43:30.211Z,8.45
2018-10-06T10:45:58.238Z,7.00
2018-10-06T10:48:26.387Z,8.98
2018-10-06T10:50:54.402Z,11.88
2018-10-06T10:53:22.439Z,10.75
2018-10-06T10:55:50.460Z,10.10
2018-10-06T10:58:18.543Z,9.58
2018-10-06T11:00:46.559Z,7.47
2018-10-06T11:03:15.112Z,8.85
2018-10-06T11:05:43.239Z,14.95
2018-10-06T11:08:11.218Z,8.93
2018-10-06T11:10:40.332Z,10.55
2018-10-06T11:13:08.898Z,10.08
2018-10-06T11:15:36.916Z,6.60
2018-10-06T11:18:05.030Z,10.98
2018-10-06T11:20:33.172Z,9.58
2018-10-06T11:23:01.205Z,10.70
2018-10-06T11:25:29.778Z,7.58
2018-10-06T11:27:58.127Z,8.70
2018-10-06T11:30:26.321Z,8.78
2018-10-06T11:32:54.344Z,8.48
2018-10-06T11:35:22.416Z,8.38
2018-10-06T11:37:50.529Z,7.50
2018-10-06T11:40:18.435Z,8.20
2018-10-06T11:42:46.553Z,11.53
2018-10-06T11:45:14.552Z,11.35
2018-10-06T11:47:42.625Z,5.42
2018-10-06T11:50:11.294Z,12.20
2018-10-06T11:52:39.338Z,10.65
2018-10-06T11:55:07.379Z,7.50
2018-10-06T11:57:35.602Z,6.12
2018-10-06T12:00:03.790Z,7.15
2018-10-06T12:02:31.780Z,11.15
2018-10-06T12:05:00.015Z,9.03
2018-10-06T12:07:28.034Z,6.72
2018-10-06T12:09:56.046Z,8.23
2018-10-06T12:12:24.114Z,10.95
2018-10-06T12:14:52.212Z,9.05
2018-10-06T12:17:20.367Z,6.03
2018-10-06T12:19:48.791Z,6.10
2018-10-06T12:22:16.852Z,10.10
2018-10-06T12:24:44.899Z,15.72
2018-10-06T12:27:13.263Z,7.25
2018-10-06T12:29:41.439Z,9.10
2018-10-06T12:32:09.616Z,6.97
2018-10-06T12:34:37.672Z,7.37
2018-10-06T12:37:05.754Z,10.20
2018-10-06T12:39:33.826Z,14.18
2018-10-06T12:42:02.137Z,6.10
2018-10-06T12:44:31.050Z,8.03
2018-10-06T12:46:59.318Z,6.08
2018-10-06T12:49:27.582Z,6.15
2018-10-06T12:51:56.526Z,8.93
2018-10-06T12:54:24.724Z,5.28
2018-10-06T12:56:52.851Z,10.35
2018-10-06T12:59:20.950Z,10.40
2018-10-06T13:01:48.999Z,5.70
2018-10-06T13:04:17.095Z,7.83
2018-10-06T13:06:45.529Z,5.50
2018-10-06T13:09:13.540Z,9.27
2018-10-06T13:11:42.075Z,7.60
2018-10-06T13:14:10.086Z,4.20
2018-10-06T13:16:38.175Z,5.67
2018-10-06T13:19:06.646Z,6.33
2018-10-06T13:21:34.670Z,5.37
2018-10-06T13:24:02.706Z,9.00
2018-10-06T13:26:30.735Z,8.50
2018-10-06T13:28:58.771Z,6.90
2018-10-06T13:31:26.868Z,6.70
2018-10-06T13:33:55.086Z,5.77
2018-10-06T13:36:23.354Z,4.42
2018-10-06T13:38:51.373Z,6.45
2018-10-06T13:41:19.507Z,6.10
2018-10-06T13:43:47.526Z,4.05
2018-10-06T13:46:15.665Z,5.72
2018-10-06T13:48:43.922Z,3.70
2018-10-06T13:51:11.928Z,5.12
2018-10-06T13:53:39.973Z,6.03
2018-10-06T13:56:08.023Z,5.22
2018-10-06T13:58:36.171Z,4.83
2018-10-06T14:01:04.178Z,2.30
2018-10-06T14:03:32.448Z,6.85
2018-10-06T14:06:00.615Z,7.75
2018-10-06T14:08:29.713Z,7.80
2018-10-06T14:10:58.295Z,7.42
2018-10-06T14:13:26.461Z,4.53
2018-10-06T14:15:54.459Z,5.35
2018-10-06T14:18:22.726Z,10.40
2018-10-06T14:20:50.758Z,4.22
2018-10-06T14:23:18.770Z,5.15
2018-10-06T14:25:47.442Z,2.35
2018-10-06T14:28:15.606Z,8.20
2018-10-06T14:30:43.659Z,3.20
2018-10-06T14:33:11.700Z,5.40
2018-10-06T14:35:39.745Z,4.47
2018-10-06T14:38:07.925Z,8.63
2018-10-06T14:40:36.594Z,4.67
2018-10-06T14:43:04.645Z,3.05
2018-10-06T14:45:32.715Z,8.58
2018-10-06T14:48:01.059Z,7.55
2018-10-06T14:50:29.086Z,2.95
2018-10-06T14:52:57.134Z,4.78
2018-10-06T14:55:25.413Z,8.30
2018-10-06T14:57:53.482Z,5.37
2018-10-06T15:00:21.599Z,5.75
2018-10-06T15:02:50.044Z,7.08
2018-10-06T15:05:18.122Z,8.45
2018-10-06T15:07:46.142Z,7.35
2018-10-06T15:10:14.706Z,8.78
2018-10-06T15:12:42.694Z,4.10
2018-10-06T15:15:10.684Z,4.92
2018-10-06T15:17:38.879Z,3.22
2018-10-06T15:20:06.963Z,5.20
2018-10-06T15:22:35.473Z,3.60
2018-10-06T15:25:04.131Z,3.58
2018-10-06T15:27:32.318Z,3.55
2018-10-06T15:30:00.367Z,9.50
2018-10-06T15:32:28.456Z,6.20
2018-10-06T15:34:56.628Z,11.08
2018-10-06T15:37:24.647Z,9.20
2018-10-06T15:39:52.694Z,6.72
2018-10-06T15:42:21.089Z,7.95
2018-10-06T15:44:49.153Z,8.35
2018-10-06T15:47:18.426Z,4.92
2018-10-06T15:49:46.673Z,6.67
2018-10-06T15:52:14.755Z,8.25
2018-10-06T15:54:42.868Z,6.10
2018-10-06T15:57:10.923Z,6.37
2018-10-06T15:59:40.388Z,8.35
2018-10-06T16:02:08.771Z,6.97
2018-10-06T16:04:36.801Z,12.33
2018-10-06T16:07:04.805Z,11.03
2018-10-06T16:09:33.307Z,11.20
2018-10-06T16:12:01.767Z,5.05
2018-10-06T16:14:30.150Z,6.92
2018-10-06T16:16:58.194Z,15.20
2018-10-06T16:19:26.251Z,11.22
2018-10-06T16:21:54.255Z,10.03
2018-10-06T16:24:22.384Z,10.60
2018-10-06T16:26:50.377Z,10.38
2018-10-06T16:29:18.419Z,10.08
2018-10-06T16:31:46.645Z,10.72
2018-10-06T16:34:14.774Z,13.30
2018-10-06T16:36:42.762Z,8.20
2018-10-06T16:39:10.777Z,10.55
2018-10-06T16:41:38.794Z,11.22
2018-10-06T16:44:06.793Z,8.95
2018-10-06T16:46:35.503Z,15.40
2018-10-06T16:49:03.662Z,12.37
2018-10-06T16:51:31.879Z,11.40
2018-10-06T16:53:59.974Z,14.30
2018-10-06T16:56:27.990Z,9.30
2018-10-06T16:58:56.043Z,11.20
2018-10-06T17:01:24.322Z,12.68
2018-10-06T17:03:52.407Z,14.28
2018-10-06T17:06:20.621Z,9.30
2018-10-06T17:08:49.259Z,5.80
2018-10-06T17:11:17.438Z,10.75
2018-10-06T17:13:45.674Z,10.82
2018-10-06T17:16:14.182Z,7.70
2018-10-06T17:18:42.340Z,9.65
2018-10-06T17:21:10.275Z,10.08
2018-10-06T17:23:38.815Z,9.90
2018-10-06T17:26:06.834Z,15.55
2018-10-06T17:28:34.833Z,16.75
2018-10-06T17:31:03.073Z,14.70
2018-10-06T17:33:31.086Z,15.40
2018-10-06T17:35:59.073Z,15.70
2018-10-06T17:38:27.239Z,11.40
2018-10-06T17:40:55.550Z,13.75
2018-10-06T17:43:23.604Z,13.43
2018-10-06T17:45:51.950Z,15.88
2018-10-06T17:48:21.165Z,21.77
2018-10-06T17:50:49.590Z,17.32
2018-10-06T17:53:17.487Z,14.65
2018-10-06T17:55:45.602Z,11.70
2018-10-06T17:58:13.991Z,15.85
2018-10-06T18:00:42.010Z,16.12
2018-10-06T18:03:10.300Z,11.30
2018-10-06T18:05:38.678Z,11.00
2018-10-06T18:08:07.066Z,16.87
2018-10-06T18:10:35.220Z,8.98
2018-10-06T18:13:03.433Z,11.35
2018-10-06T18:15:31.643Z,17.82
2018-10-06T18:18:00.064Z,10.80
2018-10-06T18:20:28.429Z,12.88
2018-10-06T18:22:56.515Z,13.13
2018-10-06T18:25:24.544Z,12.50
2018-10-06T18:27:52.641Z,14.05
2018-10-06T18:30:20.734Z,13.60
2018-10-06T18:32:48.775Z,16.12
2018-10-06T18:35:16.829Z,17.02
2018-10-06T18:37:44.834Z,12.70
2018-10-06T18:40:12.863Z,14.15
2018-10-06T18:42:40.959Z,14.20
2018-10-06T18:45:08.974Z,14.05
2018-10-06T18:47:36.997Z,17.05
2018-10-06T18:50:05.259Z,14.13
2018-10-06T18:52:33.274Z,12.03
2018-10-06T18:55:01.430Z,13.32
2018-10-06T18:57:29.848Z,13.35
2018-10-06T18:59:57.921Z,11.50
2018-10-06T19:02:25.934Z,11.50
2018-10-06T19:04:54.048Z,12.35
2018-10-06T19:07:22.072Z,18.48
2018-10-06T19:09:50.108Z,12.20
2018-10-06T19:12:18.137Z,13.18
2018-10-06T19:14:46.306Z,14.98
2018-10-06T19:17:14.558Z,14.20
2018-10-06T19:19:42.621Z,15.03
2018-10-06T19:22:11.542Z,19.05
2018-10-06T19:24:39.620Z,12.55
2018-10-06T19:27:07.670Z,11.83
2018-10-06T19:29:35.664Z,12.98
2018-10-06T19:32:03.711Z,12.25
2018-10-06T19:34:32.118Z,14.87
2018-10-06T19:37:00.148Z,14.93
2018-10-06T19:39:28.193Z,10.93
2018-10-06T19:41:56.323Z,16.63
2018-10-06T19:44:24.411Z,12.97
2018-10-06T19:46:52.446Z,14.40
2018-10-06T19:49:20.742Z,18.67
2018-10-06T19:51:48.841Z,15.23
2018-10-06T19:54:16.930Z,11.90
2018-10-06T19:56:45.106Z,9.77
2018-10-06T19:59:13.167Z,12.43
2018-10-06T20:01:41.294Z,12.27
2018-10-06T20:04:09.574Z,15.97
2018-10-06T20:06:37.645Z,10.50
2018-10-06T20:09:07.750Z,10.75
2018-10-06T20:11:35.828Z,14.47
2018-10-06T20:14:03.833Z,12.35
2018-10-06T20:16:31.974Z,14.80
2018-10-06T20:19:00.139Z,9.73
2018-10-06T20:21:28.194Z,11.63
2018-10-06T20:23:56.540Z,11.90
2018-10-06T20:26:24.890Z,13.80
2018-10-06T20:28:52.924Z,9.25
2018-10-06T20:31:21.605Z,24.32
2018-10-06T20:33:49.714Z,9.53
2018-10-06T20:36:17.749Z,10.00
2018-10-06T20:38:45.801Z,11.95
2018-10-06T20:41:13.934Z,13.13
2018-10-06T20:43:41.991Z,13.20
2018-10-06T20:46:10.487Z,11.70
2018-10-06T20:48:38.814Z,15.40
2018-10-06T20:51:06.818Z,11.95
2018-10-06T20:53:35.058Z,10.75
2018-10-06T20:56:03.065Z,8.00
2018-10-06T20:58:31.218Z,11.08
2018-10-06T21:00:59.628Z,13.05
2018-10-06T21:03:27.709Z,11.00
2018-10-06T21:05:56.096Z,13.50
2018-10-06T21:08:24.343Z,9.58
2018-10-06T21:10:52.421Z,12.00
2018-10-06T21:13:20.527Z,12.68
2018-10-06T21:15:48.773Z,19.98
2018-10-06T21:18:16.790Z,12.30
2018-10-06T21:20:45.299Z,9.30
2018-10-06T21:23:13.506Z,8.85
2018-10-06T21:25:41.515Z,9.13
2018-10-06T21:28:09.659Z,9.15
2018-10-06T21:30:37.866Z,13.83
2018-10-06T21:33:06.006Z,10.00
2018-10-06T21:35:34.050Z,11.78
2018-10-06T21:38:02.510Z,9.40
2018-10-06T21:40:30.574Z,21.87
2018-10-06T21:42:58.601Z,13.28
2018-10-06T21:45:26.841Z,10.23
2018-10-06T21:47:54.861Z,11.45
2018-10-06T21:50:22.886Z,15.60
2018-10-06T21:52:51.367Z,11.68
2018-10-06T21:55:19.402Z,11.25
2018-10-06T21:57:47.407Z,13.03
2018-10-06T22:00:16.343Z,10.13
2018-10-06T22:02:44.596Z,9.20
2018-10-06T22:05:12.674Z,13.93
2018-10-06T22:07:40.921Z,11.08
2018-10-06T22:10:08.950Z,9.28
2018-10-06T22:12:36.941Z,7.87
2018-10-06T22:15:05.153Z,11.30
2018-10-06T22:17:33.134Z,7.97
2018-10-06T22:20:01.481Z,9.50
2018-10-06T22:22:29.786Z,12.90
2018-10-06T22:24:57.875Z,8.30
2018-10-06T22:27:26.111Z,12.18
2018-10-06T22:29:54.231Z,16.60
2018-10-06T22:32:22.232Z,9.38
2018-10-06T22:34:50.228Z,14.47
2018-10-06T22:37:18.293Z,14.03
2018-10-06T22:39:46.454Z,8.85
2018-10-06T22:42:14.460Z,11.05
2018-10-06T22:44:43.032Z,11.80
2018-10-06T22:47:11.042Z,10.85
2018-10-06T22:49:39.142Z,9.93
2018-10-06T22:52:07.284Z,11.75
2018-10-06T22:54:35.337Z,12.07
2018-10-06T22:57:03.426Z,9.95
2018-10-06T22:59:31.434Z,11.55
2018-10-06T23:01:59.509Z,8.98
2018-10-06T23:04:27.546Z,10.63
2018-10-06T23:06:56.059Z,11.08
2018-10-06T23:09:24.130Z,9.98
2018-10-06T23:11:52.250Z,10.30
2018-10-06T23:14:20.473Z,11.28
2018-10-06T23:16:48.478Z,16.20
2018-10-06T23:19:16.507Z,17.10
2018-10-06T23:21:45.511Z,12.90
2018-10-06T23:24:13.808Z,11.33
2018-10-06T23:26:41.822Z,15.18
2018-10-06T23:29:09.854Z,7.78
2018-10-06T23:31:37.934Z,9.23
2018-10-06T23:34:05.962Z,8.60
2018-10-06T23:36:34.551Z,9.83
2018-10-06T23:39:02.551Z,10.08
2018-10-06T23:41:30.578Z,10.63
2018-10-06T23:43:58.766Z,7.78
2018-10-06T23:46:26.880Z,10.13
2018-10-06T23:48:54.910Z,14.40
2018-10-06T23:51:23.083Z,12.13
2018-10-06T23:53:51.259Z,11.73
2018-10-06T23:56:19.354Z,11.57
2018-10-06T23:58:47.547Z,11.28
